sensor_id;sensor_type;location;lat;lon;timestamp;P1;durP1;ratioP1;P2;durP2;ratioP2
29092;SDS011;16167;48.768;14.984;2024-02-14T00:01:39;23.52;;;12.75;;
29092;SDS011;16167;48.768;14.984;2024-02-14T00:04:09;19.73;;;11.00;;
29092;SDS011;16167;48.768;14.984;2024-02-14T00:06:41;17.45;;;10.82;;
29092;SDS011;16167;48.768;14.984;2024-02-14T00:09:09;16.40;;;9.52;;
29092;SDS011;16167;48.768;14.984;2024-02-14T00:11:38;14.38;;;8.38;;
29092;SDS011;16167;48.768;14.984;2024-02-14T00:14:06;20.60;;;10.65;;
29092;SDS011;16167;48.768;14.984;2024-02-14T00:16:34;18.75;;;10.65;;
29092;SDS011;16167;48.768;14.984;2024-02-14T00:19:05;24.20;;;13.00;;
29092;SDS011;16167;48.768;14.984;2024-02-14T00:21:33;21.27;;;12.60;;
29092;SDS011;16167;48.768;14.984;2024-02-14T00:24:04;21.50;;;12.90;;
29092;SDS011;16167;48.768;14.984;2024-02-14T00:26:33;26.65;;;14.02;;
29092;SDS011;16167;48.768;14.984;2024-02-14T00:29:02;25.95;;;13.55;;
29092;SDS011;16167;48.768;14.984;2024-02-14T00:31:30;23.88;;;13.32;;
29092;SDS011;16167;48.768;14.984;2024-02-14T00:33:58;24.95;;;14.40;;
29092;SDS011;16167;48.768;14.984;2024-02-14T00:36:27;30.05;;;15.35;;
29092;SDS011;16167;48.768;14.984;2024-02-14T00:38:55;28.90;;;14.55;;
29092;SDS011;16167;48.768;14.984;2024-02-14T00:41:24;26.98;;;15.05;;
29092;SDS011;16167;48.768;14.984;2024-02-14T00:43:56;29.45;;;15.52;;
29092;SDS011;16167;48.768;14.984;2024-02-14T00:46:24;31.80;;;15.43;;
29092;SDS011;16167;48.768;14.984;2024-02-14T00:48:52;29.92;;;15.50;;
29092;SDS011;16167;48.768;14.984;2024-02-14T00:51:21;29.02;;;15.32;;
29092;SDS011;16167;48.768;14.984;2024-02-14T00:53:50;27.83;;;15.48;;
29092;SDS011;16167;48.768;14.984;2024-02-14T00:56:19;29.08;;;14.38;;
29092;SDS011;16167;48.768;14.984;2024-02-14T00:58:48;26.65;;;14.05;;
29092;SDS011;16167;48.768;14.984;2024-02-14T01:03:45;26.13;;;14.02;;
29092;SDS011;16167;48.768;14.984;2024-02-14T01:06:14;22.63;;;11.23;;
29092;SDS011;16167;48.768;14.984;2024-02-14T01:08:42;25.95;;;14.68;;
29092;SDS011;16167;48.768;14.984;2024-02-14T01:11:11;25.05;;;14.20;;
29092;SDS011;16167;48.768;14.984;2024-02-14T01:13:39;27.85;;;13.23;;
29092;SDS011;16167;48.768;14.984;2024-02-14T01:16:09;20.13;;;10.60;;
29092;SDS011;16167;48.768;14.984;2024-02-14T01:18:37;25.23;;;13.55;;
29092;SDS011;16167;48.768;14.984;2024-02-14T01:21:06;24.38;;;13.57;;
29092;SDS011;16167;48.768;14.984;2024-02-14T01:23:34;19.67;;;10.63;;
29092;SDS011;16167;48.768;14.984;2024-02-14T01:26:03;24.20;;;12.93;;
29092;SDS011;16167;48.768;14.984;2024-02-14T01:28:31;24.80;;;13.10;;
29092;SDS011;16167;48.768;14.984;2024-02-14T01:31:00;19.63;;;9.43;;
29092;SDS011;16167;48.768;14.984;2024-02-14T01:33:29;28.83;;;13.75;;
29092;SDS011;16167;48.768;14.984;2024-02-14T01:35:58;26.35;;;13.68;;
29092;SDS011;16167;48.768;14.984;2024-02-14T01:38:26;28.52;;;14.30;;
29092;SDS011;16167;48.768;14.984;2024-02-14T01:40:54;22.95;;;13.15;;
29092;SDS011;16167;48.768;14.984;2024-02-14T01:43:23;24.60;;;13.43;;
29092;SDS011;16167;48.768;14.984;2024-02-14T01:45:51;16.37;;;8.90;;
29092;SDS011;16167;48.768;14.984;2024-02-14T01:48:20;22.23;;;13.10;;
29092;SDS011;16167;48.768;14.984;2024-02-14T01:50:49;18.77;;;9.80;;
29092;SDS011;16167;48.768;14.984;2024-02-14T01:53:18;26.67;;;13.68;;
29092;SDS011;16167;48.768;14.984;2024-02-14T01:55:46;24.50;;;14.25;;
29092;SDS011;16167;48.768;14.984;2024-02-14T01:58:15;27.17;;;13.93;;
29092;SDS011;16167;48.768;14.984;2024-02-14T02:03:18;27.55;;;13.32;;
29092;SDS011;16167;48.768;14.984;2024-02-14T02:05:50;27.98;;;13.68;;
29092;SDS011;16167;48.768;14.984;2024-02-14T02:08:21;27.23;;;13.07;;
29092;SDS011;16167;48.768;14.984;2024-02-14T02:10:50;22.85;;;12.80;;
29092;SDS011;16167;48.768;14.984;2024-02-14T02:13:18;21.45;;;12.40;;
29092;SDS011;16167;48.768;14.984;2024-02-14T02:15:47;22.67;;;11.50;;
29092;SDS011;16167;48.768;14.984;2024-02-14T02:18:18;22.80;;;11.73;;
29092;SDS011;16167;48.768;14.984;2024-02-14T02:20:47;22.50;;;11.57;;
29092;SDS011;16167;48.768;14.984;2024-02-14T02:23:17;23.75;;;11.70;;
29092;SDS011;16167;48.768;14.984;2024-02-14T02:25:45;20.92;;;10.90;;
29092;SDS011;16167;48.768;14.984;2024-02-14T02:28:14;22.88;;;11.43;;
29092;SDS011;16167;48.768;14.984;2024-02-14T02:30:42;24.55;;;11.25;;
29092;SDS011;16167;48.768;14.984;2024-02-14T02:33:12;18.92;;;11.00;;
29092;SDS011;16167;48.768;14.984;2024-02-14T02:35:41;18.50;;;9.33;;
29092;SDS011;16167;48.768;14.984;2024-02-14T02:38:11;21.90;;;11.40;;
29092;SDS011;16167;48.768;14.984;2024-02-14T02:40:41;19.27;;;10.60;;
29092;SDS011;16167;48.768;14.984;2024-02-14T02:43:09;24.13;;;11.63;;
29092;SDS011;16167;48.768;14.984;2024-02-14T02:45:38;21.98;;;10.52;;
29092;SDS011;16167;48.768;14.984;2024-02-14T02:48:06;20.40;;;10.73;;
29092;SDS011;16167;48.768;14.984;2024-02-14T02:50:35;17.35;;;10.45;;
29092;SDS011;16167;48.768;14.984;2024-02-14T02:53:03;22.33;;;10.85;;
29092;SDS011;16167;48.768;14.984;2024-02-14T02:55:32;18.25;;;10.00;;
29092;SDS011;16167;48.768;14.984;2024-02-14T02:58:05;21.85;;;9.68;;
29092;SDS011;16167;48.768;14.984;2024-02-14T03:00:33;14.68;;;9.15;;
29092;SDS011;16167;48.768;14.984;2024-02-14T03:03:01;17.03;;;8.83;;
29092;SDS011;16167;48.768;14.984;2024-02-14T03:05:31;13.63;;;9.02;;
29092;SDS011;16167;48.768;14.984;2024-02-14T03:08:00;16.85;;;9.32;;
29092;SDS011;16167;48.768;14.984;2024-02-14T03:10:28;14.32;;;9.23;;
29092;SDS011;16167;48.768;14.984;2024-02-14T03:12:57;19.92;;;10.13;;
29092;SDS011;16167;48.768;14.984;2024-02-14T03:15:26;14.48;;;8.85;;
29092;SDS011;16167;48.768;14.984;2024-02-14T03:17:55;18.23;;;10.20;;
29092;SDS011;16167;48.768;14.984;2024-02-14T03:20:23;15.85;;;8.93;;
29092;SDS011;16167;48.768;14.984;2024-02-14T03:22:52;15.45;;;8.30;;
29092;SDS011;16167;48.768;14.984;2024-02-14T03:25:20;18.63;;;10.00;;
29092;SDS011;16167;48.768;14.984;2024-02-14T03:27:50;15.60;;;9.30;;
29092;SDS011;16167;48.768;14.984;2024-02-14T03:30:19;19.23;;;10.73;;
29092;SDS011;16167;48.768;14.984;2024-02-14T03:32:50;18.83;;;9.68;;
29092;SDS011;16167;48.768;14.984;2024-02-14T03:35:19;19.23;;;10.50;;
29092;SDS011;16167;48.768;14.984;2024-02-14T03:37:48;14.10;;;9.40;;
29092;SDS011;16167;48.768;14.984;2024-02-14T03:40:19;20.60;;;10.45;;
29092;SDS011;16167;48.768;14.984;2024-02-14T03:42:48;19.17;;;8.80;;
29092;SDS011;16167;48.768;14.984;2024-02-14T03:45:18;17.75;;;9.40;;
29092;SDS011;16167;48.768;14.984;2024-02-14T03:47:47;12.00;;;8.40;;
29092;SDS011;16167;48.768;14.984;2024-02-14T03:50:16;17.88;;;9.50;;
29092;SDS011;16167;48.768;14.984;2024-02-14T03:52:45;15.70;;;9.07;;
29092;SDS011;16167;48.768;14.984;2024-02-14T03:55:14;15.55;;;9.50;;
29092;SDS011;16167;48.768;14.984;2024-02-14T03:57:44;15.73;;;9.23;;
29092;SDS011;16167;48.768;14.984;2024-02-14T04:00:13;16.95;;;9.68;;
29092;SDS011;16167;48.768;14.984;2024-02-14T04:02:43;17.00;;;9.15;;
29092;SDS011;16167;48.768;14.984;2024-02-14T04:05:11;18.10;;;9.95;;
29092;SDS011;16167;48.768;14.984;2024-02-14T04:07:41;16.25;;;10.50;;
29092;SDS011;16167;48.768;14.984;2024-02-14T04:10:11;22.13;;;11.73;;
29092;SDS011;16167;48.768;14.984;2024-02-14T04:12:40;20.10;;;11.93;;
29092;SDS011;16167;48.768;14.984;2024-02-14T04:15:08;19.23;;;9.98;;
29092;SDS011;16167;48.768;14.984;2024-02-14T04:17:37;21.02;;;11.20;;
29092;SDS011;16167;48.768;14.984;2024-02-14T04:20:07;19.10;;;9.57;;
29092;SDS011;16167;48.768;14.984;2024-02-14T04:22:36;16.92;;;9.30;;
29092;SDS011;16167;48.768;14.984;2024-02-14T04:25:07;16.15;;;9.50;;
29092;SDS011;16167;48.768;14.984;2024-02-14T04:27:35;17.38;;;9.48;;
29092;SDS011;16167;48.768;14.984;2024-02-14T04:30:04;15.27;;;9.20;;
29092;SDS011;16167;48.768;14.984;2024-02-14T04:32:33;14.38;;;8.60;;
29092;SDS011;16167;48.768;14.984;2024-02-14T04:35:02;15.73;;;8.95;;
29092;SDS011;16167;48.768;14.984;2024-02-14T04:37:31;10.52;;;6.07;;
29092;SDS011;16167;48.768;14.984;2024-02-14T04:39:59;14.82;;;8.45;;
29092;SDS011;16167;48.768;14.984;2024-02-14T04:42:29;14.00;;;8.10;;
29092;SDS011;16167;48.768;14.984;2024-02-14T04:44:57;13.50;;;7.18;;
29092;SDS011;16167;48.768;14.984;2024-02-14T04:47:25;13.82;;;7.93;;
29092;SDS011;16167;48.768;14.984;2024-02-14T04:52:23;12.43;;;7.72;;
29092;SDS011;16167;48.768;14.984;2024-02-14T04:54:51;15.82;;;7.75;;
29092;SDS011;16167;48.768;14.984;2024-02-14T04:57:19;10.90;;;7.20;;
29092;SDS011;16167;48.768;14.984;2024-02-14T04:59:49;13.93;;;8.35;;
29092;SDS011;16167;48.768;14.984;2024-02-14T05:02:17;38.08;;;23.38;;
29092;SDS011;16167;48.768;14.984;2024-02-14T05:04:46;43.30;;;23.60;;
29092;SDS011;16167;48.768;14.984;2024-02-14T05:07:14;20.88;;;12.20;;
29092;SDS011;16167;48.768;14.984;2024-02-14T05:09:44;17.38;;;8.75;;
29092;SDS011;16167;48.768;14.984;2024-02-14T05:12:12;32.15;;;18.95;;
29092;SDS011;16167;48.768;14.984;2024-02-14T05:14:40;18.25;;;9.80;;
29092;SDS011;16167;48.768;14.984;2024-02-14T05:17:10;10.88;;;7.22;;
29092;SDS011;16167;48.768;14.984;2024-02-14T05:19:38;13.45;;;9.13;;
29092;SDS011;16167;48.768;14.984;2024-02-14T05:22:09;14.27;;;7.18;;
29092;SDS011;16167;48.768;14.984;2024-02-14T05:24:38;12.68;;;7.30;;
29092;SDS011;16167;48.768;14.984;2024-02-14T05:27:06;12.32;;;7.93;;
29092;SDS011;16167;48.768;14.984;2024-02-14T05:29:34;12.33;;;5.93;;
29092;SDS011;16167;48.768;14.984;2024-02-14T05:32:03;13.18;;;7.63;;
29092;SDS011;16167;48.768;14.984;2024-02-14T05:34:33;11.98;;;7.53;;
29092;SDS011;16167;48.768;14.984;2024-02-14T05:37:01;14.70;;;7.25;;
29092;SDS011;16167;48.768;14.984;2024-02-14T05:39:32;14.15;;;7.85;;
29092;SDS011;16167;48.768;14.984;2024-02-14T05:42:00;13.75;;;6.82;;
29092;SDS011;16167;48.768;14.984;2024-02-14T05:44:28;14.73;;;8.32;;
29092;SDS011;16167;48.768;14.984;2024-02-14T05:46:57;12.95;;;7.85;;
29092;SDS011;16167;48.768;14.984;2024-02-14T05:49:25;13.52;;;7.93;;
29092;SDS011;16167;48.768;14.984;2024-02-14T05:51:55;13.70;;;7.40;;
29092;SDS011;16167;48.768;14.984;2024-02-14T05:54:23;13.98;;;7.70;;
29092;SDS011;16167;48.768;14.984;2024-02-14T05:56:51;17.17;;;8.25;;
29092;SDS011;16167;48.768;14.984;2024-02-14T05:59:20;14.18;;;7.80;;
29092;SDS011;16167;48.768;14.984;2024-02-14T06:01:49;17.20;;;8.73;;
29092;SDS011;16167;48.768;14.984;2024-02-14T06:04:18;17.23;;;9.07;;
29092;SDS011;16167;48.768;14.984;2024-02-14T06:06:46;13.45;;;8.32;;
29092;SDS011;16167;48.768;14.984;2024-02-14T06:09:16;17.15;;;9.23;;
29092;SDS011;16167;48.768;14.984;2024-02-14T06:11:44;15.40;;;8.10;;
29092;SDS011;16167;48.768;14.984;2024-02-14T06:14:12;16.55;;;8.30;;
29092;SDS011;16167;48.768;14.984;2024-02-14T06:16:42;13.32;;;8.20;;
29092;SDS011;16167;48.768;14.984;2024-02-14T06:19:10;14.90;;;8.95;;
29092;SDS011;16167;48.768;14.984;2024-02-14T06:21:39;17.23;;;8.57;;
29092;SDS011;16167;48.768;14.984;2024-02-14T06:24:07;16.33;;;9.13;;
29092;SDS011;16167;48.768;14.984;2024-02-14T06:26:37;14.02;;;7.47;;
29092;SDS011;16167;48.768;14.984;2024-02-14T06:29:05;14.60;;;8.23;;
29092;SDS011;16167;48.768;14.984;2024-02-14T06:31:34;15.52;;;8.38;;
29092;SDS011;16167;48.768;14.984;2024-02-14T06:34:02;13.93;;;7.78;;
29092;SDS011;16167;48.768;14.984;2024-02-14T06:36:31;11.10;;;7.28;;
29092;SDS011;16167;48.768;14.984;2024-02-14T06:39:00;10.57;;;5.43;;
29092;SDS011;16167;48.768;14.984;2024-02-14T06:41:28;14.35;;;8.65;;
29092;SDS011;16167;48.768;14.984;2024-02-14T06:46:27;14.15;;;8.38;;
29092;SDS011;16167;48.768;14.984;2024-02-14T06:48:55;15.07;;;8.05;;
29092;SDS011;16167;48.768;14.984;2024-02-14T06:51:24;13.20;;;7.93;;
29092;SDS011;16167;48.768;14.984;2024-02-14T06:53:52;16.00;;;9.48;;
29092;SDS011;16167;48.768;14.984;2024-02-14T06:56:21;17.20;;;8.35;;
29092;SDS011;16167;48.768;14.984;2024-02-14T06:58:49;17.05;;;8.50;;
29092;SDS011;16167;48.768;14.984;2024-02-14T07:01:21;12.07;;;8.45;;
29092;SDS011;16167;48.768;14.984;2024-02-14T07:03:51;14.85;;;8.20;;
29092;SDS011;16167;48.768;14.984;2024-02-14T07:06:19;19.40;;;8.93;;
29092;SDS011;16167;48.768;14.984;2024-02-14T07:08:48;14.73;;;8.23;;
29092;SDS011;16167;48.768;14.984;2024-02-14T07:11:17;20.85;;;9.45;;
29092;SDS011;16167;48.768;14.984;2024-02-14T07:13:45;10.10;;;7.38;;
29092;SDS011;16167;48.768;14.984;2024-02-14T07:16:13;14.02;;;8.27;;
29092;SDS011;16167;48.768;14.984;2024-02-14T07:18:43;15.25;;;8.18;;
29092;SDS011;16167;48.768;14.984;2024-02-14T07:21:11;11.90;;;7.80;;
29092;SDS011;16167;48.768;14.984;2024-02-14T07:23:40;15.43;;;7.80;;
29092;SDS011;16167;48.768;14.984;2024-02-14T07:26:08;15.07;;;7.22;;
29092;SDS011;16167;48.768;14.984;2024-02-14T07:28:36;13.38;;;8.40;;
29092;SDS011;16167;48.768;14.984;2024-02-14T07:31:04;17.65;;;8.60;;
29092;SDS011;16167;48.768;14.984;2024-02-14T07:33:32;18.02;;;8.25;;
29092;SDS011;16167;48.768;14.984;2024-02-14T07:36:02;12.32;;;6.50;;
29092;SDS011;16167;48.768;14.984;2024-02-14T07:38:31;15.35;;;8.00;;
29092;SDS011;16167;48.768;14.984;2024-02-14T07:40:59;14.23;;;7.72;;
29092;SDS011;16167;48.768;14.984;2024-02-14T07:43:28;16.52;;;8.20;;
29092;SDS011;16167;48.768;14.984;2024-02-14T07:45:56;14.50;;;8.15;;
29092;SDS011;16167;48.768;14.984;2024-02-14T07:48:24;10.43;;;6.53;;
29092;SDS011;16167;48.768;14.984;2024-02-14T07:50:53;14.65;;;8.32;;
29092;SDS011;16167;48.768;14.984;2024-02-14T07:53:23;15.93;;;8.30;;
29092;SDS011;16167;48.768;14.984;2024-02-14T07:55:52;16.02;;;9.35;;
29092;SDS011;16167;48.768;14.984;2024-02-14T07:58:21;13.52;;;8.07;;
29092;SDS011;16167;48.768;14.984;2024-02-14T08:00:49;21.02;;;8.18;;
29092;SDS011;16167;48.768;14.984;2024-02-14T08:03:17;13.60;;;8.25;;
29092;SDS011;16167;48.768;14.984;2024-02-14T08:05:46;15.70;;;7.95;;
29092;SDS011;16167;48.768;14.984;2024-02-14T08:08:14;18.40;;;8.60;;
29092;SDS011;16167;48.768;14.984;2024-02-14T08:10:44;14.52;;;7.55;;
29092;SDS011;16167;48.768;14.984;2024-02-14T08:13:12;13.20;;;8.10;;
29092;SDS011;16167;48.768;14.984;2024-02-14T08:15:42;16.20;;;8.60;;
29092;SDS011;16167;48.768;14.984;2024-02-14T08:18:10;17.33;;;8.02;;
29092;SDS011;16167;48.768;14.984;2024-02-14T08:20:39;10.65;;;6.05;;
29092;SDS011;16167;48.768;14.984;2024-02-14T08:23:08;14.88;;;9.02;;
29092;SDS011;16167;48.768;14.984;2024-02-14T08:25:37;17.60;;;10.88;;
29092;SDS011;16167;48.768;14.984;2024-02-14T08:28:07;22.27;;;12.35;;
29092;SDS011;16167;48.768;14.984;2024-02-14T08:30:35;22.83;;;13.43;;
29092;SDS011;16167;48.768;14.984;2024-02-14T08:33:04;25.08;;;12.82;;
29092;SDS011;16167;48.768;14.984;2024-02-14T08:35:32;22.03;;;12.13;;
29092;SDS011;16167;48.768;14.984;2024-02-14T08:38:08;20.63;;;11.70;;
29092;SDS011;16167;48.768;14.984;2024-02-14T08:40:36;22.67;;;11.95;;
29092;SDS011;16167;48.768;14.984;2024-02-14T08:43:05;24.73;;;15.32;;
29092;SDS011;16167;48.768;14.984;2024-02-14T08:48:04;36.58;;;20.85;;
29092;SDS011;16167;48.768;14.984;2024-02-14T08:50:34;35.38;;;20.98;;
29092;SDS011;16167;48.768;14.984;2024-02-14T08:53:02;41.10;;;22.63;;
29092;SDS011;16167;48.768;14.984;2024-02-14T08:55:31;39.83;;;23.33;;
29092;SDS011;16167;48.768;14.984;2024-02-14T08:58:01;37.75;;;20.40;;
29092;SDS011;16167;48.768;14.984;2024-02-14T09:00:31;35.90;;;18.37;;
29092;SDS011;16167;48.768;14.984;2024-02-14T09:03:02;24.98;;;14.43;;
29092;SDS011;16167;48.768;14.984;2024-02-14T09:08:00;14.63;;;8.57;;
29092;SDS011;16167;48.768;14.984;2024-02-14T09:10:28;21.42;;;11.00;;
29092;SDS011;16167;48.768;14.984;2024-02-14T09:12:57;14.85;;;8.38;;
29092;SDS011;16167;48.768;14.984;2024-02-14T09:15:25;17.67;;;9.30;;
29092;SDS011;16167;48.768;14.984;2024-02-14T09:17:55;16.00;;;7.78;;
29092;SDS011;16167;48.768;14.984;2024-02-14T09:20:23;14.88;;;7.40;;
29092;SDS011;16167;48.768;14.984;2024-02-14T09:22:52;10.93;;;7.70;;
29092;SDS011;16167;48.768;14.984;2024-02-14T09:25:20;12.90;;;6.93;;
29092;SDS011;16167;48.768;14.984;2024-02-14T09:27:49;11.10;;;5.63;;
29092;SDS011;16167;48.768;14.984;2024-02-14T09:30:18;10.27;;;4.30;;
29092;SDS011;16167;48.768;14.984;2024-02-14T09:33:01;6.75;;;4.35;;
29092;SDS011;16167;48.768;14.984;2024-02-14T09:35:30;8.10;;;4.63;;
29092;SDS011;16167;48.768;14.984;2024-02-14T09:37:59;8.02;;;4.57;;
29092;SDS011;16167;48.768;14.984;2024-02-14T09:40:27;8.35;;;4.57;;
29092;SDS011;16167;48.768;14.984;2024-02-14T09:42:55;10.45;;;4.32;;
29092;SDS011;16167;48.768;14.984;2024-02-14T09:45:27;8.80;;;2.75;;
29092;SDS011;16167;48.768;14.984;2024-02-14T09:47:57;4.88;;;1.98;;
29092;SDS011;16167;48.768;14.984;2024-02-14T09:50:27;5.78;;;2.00;;
29092;SDS011;16167;48.768;14.984;2024-02-14T09:52:58;7.03;;;2.13;;
29092;SDS011;16167;48.768;14.984;2024-02-14T09:55:27;5.75;;;2.00;;
29092;SDS011;16167;48.768;14.984;2024-02-14T09:57:55;3.23;;;2.00;;
29092;SDS011;16167;48.768;14.984;2024-02-14T10:00:25;5.38;;;1.65;;
29092;SDS011;16167;48.768;14.984;2024-02-14T10:02:54;5.45;;;1.85;;
29092;SDS011;16167;48.768;14.984;2024-02-14T10:05:22;7.90;;;2.70;;
29092;SDS011;16167;48.768;14.984;2024-02-14T10:07:54;3.80;;;2.10;;
29092;SDS011;16167;48.768;14.984;2024-02-14T10:10:25;6.68;;;1.90;;
29092;SDS011;16167;48.768;14.984;2024-02-14T10:12:54;4.18;;;1.85;;
29092;SDS011;16167;48.768;14.984;2024-02-14T10:15:23;5.28;;;2.10;;
29092;SDS011;16167;48.768;14.984;2024-02-14T10:17:51;5.85;;;2.05;;
29092;SDS011;16167;48.768;14.984;2024-02-14T10:20:20;4.30;;;1.92;;
29092;SDS011;16167;48.768;14.984;2024-02-14T10:22:49;5.15;;;3.88;;
29092;SDS011;16167;48.768;14.984;2024-02-14T10:25:17;59.38;;;34.72;;
29092;SDS011;16167;48.768;14.984;2024-02-14T10:27:48;136.05;;;72.55;;
29092;SDS011;16167;48.768;14.984;2024-02-14T10:30:16;56.13;;;37.17;;
29092;SDS011;16167;48.768;14.984;2024-02-14T10:32:44;74.35;;;43.15;;
29092;SDS011;16167;48.768;14.984;2024-02-14T10:35:15;77.82;;;52.15;;
29092;SDS011;16167;48.768;14.984;2024-02-14T10:37:44;29.45;;;25.10;;
29092;SDS011;16167;48.768;14.984;2024-02-14T10:40:12;5.38;;;2.72;;
29092;SDS011;16167;48.768;14.984;2024-02-14T10:42:42;7.20;;;2.55;;
29092;SDS011;16167;48.768;14.984;2024-02-14T10:45:10;3.05;;;1.80;;
29092;SDS011;16167;48.768;14.984;2024-02-14T10:47:40;4.57;;;2.20;;
29092;SDS011;16167;48.768;14.984;2024-02-14T10:50:11;4.25;;;1.90;;
29092;SDS011;16167;48.768;14.984;2024-02-14T10:52:41;8.38;;;2.72;;
29092;SDS011;16167;48.768;14.984;2024-02-14T10:55:10;4.97;;;2.42;;
29092;SDS011;16167;48.768;14.984;2024-02-14T10:57:39;6.20;;;2.05;;
29092;SDS011;16167;48.768;14.984;2024-02-14T11:00:12;2.83;;;1.70;;
29092;SDS011;16167;48.768;14.984;2024-02-14T11:02:44;4.38;;;2.30;;
29092;SDS011;16167;48.768;14.984;2024-02-14T11:05:13;3.65;;;1.98;;
29092;SDS011;16167;48.768;14.984;2024-02-14T11:07:45;5.18;;;2.38;;
29092;SDS011;16167;48.768;14.984;2024-02-14T11:10:13;6.03;;;2.20;;
29092;SDS011;16167;48.768;14.984;2024-02-14T11:12:46;5.80;;;2.33;;
29092;SDS011;16167;48.768;14.984;2024-02-14T11:15:16;6.47;;;2.33;;
29092;SDS011;16167;48.768;14.984;2024-02-14T11:17:47;5.38;;;2.13;;
29092;SDS011;16167;48.768;14.984;2024-02-14T11:20:18;4.68;;;2.53;;
29092;SDS011;16167;48.768;14.984;2024-02-14T11:22:54;4.53;;;2.60;;
29092;SDS011;16167;48.768;14.984;2024-02-14T11:25:28;4.75;;;2.70;;
29092;SDS011;16167;48.768;14.984;2024-02-14T11:27:58;5.32;;;2.65;;
29092;SDS011;16167;48.768;14.984;2024-02-14T11:30:29;3.88;;;2.05;;
29092;SDS011;16167;48.768;14.984;2024-02-14T11:33:09;4.03;;;1.90;;
29092;SDS011;16167;48.768;14.984;2024-02-14T11:35:42;4.95;;;2.63;;
29092;SDS011;16167;48.768;14.984;2024-02-14T11:38:11;4.70;;;2.35;;
29092;SDS011;16167;48.768;14.984;2024-02-14T11:40:40;3.30;;;1.83;;
29092;SDS011;16167;48.768;14.984;2024-02-14T11:43:13;5.20;;;2.75;;
29092;SDS011;16167;48.768;14.984;2024-02-14T11:45:43;5.85;;;2.65;;
29092;SDS011;16167;48.768;14.984;2024-02-14T11:50:41;5.55;;;2.25;;
29092;SDS011;16167;48.768;14.984;2024-02-14T11:53:11;4.35;;;2.20;;
29092;SDS011;16167;48.768;14.984;2024-02-14T11:55:41;4.00;;;2.40;;
29092;SDS011;16167;48.768;14.984;2024-02-14T11:58:10;4.50;;;2.87;;
29092;SDS011;16167;48.768;14.984;2024-02-14T12:00:41;5.38;;;2.67;;
29092;SDS011;16167;48.768;14.984;2024-02-14T12:03:11;5.00;;;2.58;;
29092;SDS011;16167;48.768;14.984;2024-02-14T12:05:40;4.53;;;2.40;;
29092;SDS011;16167;48.768;14.984;2024-02-14T12:08:10;3.97;;;2.33;;
29092;SDS011;16167;48.768;14.984;2024-02-14T12:10:41;5.18;;;2.05;;
29092;SDS011;16167;48.768;14.984;2024-02-14T12:13:13;2.10;;;1.70;;
29092;SDS011;16167;48.768;14.984;2024-02-14T12:15:46;3.50;;;1.65;;
29092;SDS011;16167;48.768;14.984;2024-02-14T12:18:18;5.07;;;1.90;;
29092;SDS011;16167;48.768;14.984;2024-02-14T12:20:48;2.80;;;2.08;;
29092;SDS011;16167;48.768;14.984;2024-02-14T12:23:22;5.18;;;2.15;;
29092;SDS011;16167;48.768;14.984;2024-02-14T12:25:53;4.40;;;2.17;;
29092;SDS011;16167;48.768;14.984;2024-02-14T12:28:22;2.97;;;2.10;;
29092;SDS011;16167;48.768;14.984;2024-02-14T12:30:52;4.05;;;1.80;;
29092;SDS011;16167;48.768;14.984;2024-02-14T12:33:23;3.35;;;1.85;;
29092;SDS011;16167;48.768;14.984;2024-02-14T12:38:21;4.00;;;2.33;;
29092;SDS011;16167;48.768;14.984;2024-02-14T12:40:50;4.07;;;1.90;;
29092;SDS011;16167;48.768;14.984;2024-02-14T12:43:20;5.85;;;3.55;;
29092;SDS011;16167;48.768;14.984;2024-02-14T12:45:49;4.60;;;2.40;;
29092;SDS011;16167;48.768;14.984;2024-02-14T12:48:23;6.13;;;2.03;;
29092;SDS011;16167;48.768;14.984;2024-02-14T12:50:53;2.83;;;1.52;;
29092;SDS011;16167;48.768;14.984;2024-02-14T12:53:23;4.15;;;1.80;;
29092;SDS011;16167;48.768;14.984;2024-02-14T12:55:51;4.50;;;1.87;;
29092;SDS011;16167;48.768;14.984;2024-02-14T12:58:20;4.30;;;1.63;;
29092;SDS011;16167;48.768;14.984;2024-02-14T13:00:48;4.78;;;1.70;;
29092;SDS011;16167;48.768;14.984;2024-02-14T13:03:17;4.07;;;1.70;;
29092;SDS011;16167;48.768;14.984;2024-02-14T13:05:47;3.63;;;1.52;;
29092;SDS011;16167;48.768;14.984;2024-02-14T13:08:16;4.25;;;1.70;;
29092;SDS011;16167;48.768;14.984;2024-02-14T13:10:44;4.20;;;1.90;;
29092;SDS011;16167;48.768;14.984;2024-02-14T13:13:13;3.33;;;1.70;;
29092;SDS011;16167;48.768;14.984;2024-02-14T13:15:41;2.45;;;1.40;;
29092;SDS011;16167;48.768;14.984;2024-02-14T13:18:11;2.60;;;1.25;;
29092;SDS011;16167;48.768;14.984;2024-02-14T13:20:40;2.70;;;1.45;;
29092;SDS011;16167;48.768;14.984;2024-02-14T13:23:12;4.53;;;1.80;;
29092;SDS011;16167;48.768;14.984;2024-02-14T13:25:41;3.65;;;2.03;;
29092;SDS011;16167;48.768;14.984;2024-02-14T13:28:09;2.70;;;1.60;;
29092;SDS011;16167;48.768;14.984;2024-02-14T13:30:38;7.32;;;2.95;;
29092;SDS011;16167;48.768;14.984;2024-02-14T13:33:06;5.77;;;2.30;;
29092;SDS011;16167;48.768;14.984;2024-02-14T13:35:36;6.50;;;2.75;;
29092;SDS011;16167;48.768;14.984;2024-02-14T13:38:06;5.53;;;2.92;;
29092;SDS011;16167;48.768;14.984;2024-02-14T13:40:37;8.23;;;3.33;;
29092;SDS011;16167;48.768;14.984;2024-02-14T13:43:05;8.30;;;3.63;;
29092;SDS011;16167;48.768;14.984;2024-02-14T13:45:39;8.18;;;3.40;;
29092;SDS011;16167;48.768;14.984;2024-02-14T13:48:10;3.25;;;1.85;;
29092;SDS011;16167;48.768;14.984;2024-02-14T13:50:39;2.10;;;1.42;;
29092;SDS011;16167;48.768;14.984;2024-02-14T13:53:08;3.15;;;1.40;;
29092;SDS011;16167;48.768;14.984;2024-02-14T13:55:38;3.00;;;1.88;;
29092;SDS011;16167;48.768;14.984;2024-02-14T13:58:07;3.05;;;1.63;;
29092;SDS011;16167;48.768;14.984;2024-02-14T14:00:41;3.05;;;1.33;;
29092;SDS011;16167;48.768;14.984;2024-02-14T14:03:09;4.20;;;1.83;;
29092;SDS011;16167;48.768;14.984;2024-02-14T14:05:38;3.35;;;2.10;;
29092;SDS011;16167;48.768;14.984;2024-02-14T14:08:07;3.17;;;1.47;;
29092;SDS011;16167;48.768;14.984;2024-02-14T14:10:35;2.40;;;1.45;;
29092;SDS011;16167;48.768;14.984;2024-02-14T14:13:05;2.45;;;1.50;;
29092;SDS011;16167;48.768;14.984;2024-02-14T14:15:34;3.45;;;1.63;;
29092;SDS011;16167;48.768;14.984;2024-02-14T14:18:03;2.80;;;1.50;;
29092;SDS011;16167;48.768;14.984;2024-02-14T14:20:31;3.65;;;1.75;;
29092;SDS011;16167;48.768;14.984;2024-02-14T14:23:00;3.15;;;2.40;;
29092;SDS011;16167;48.768;14.984;2024-02-14T14:25:30;4.97;;;3.28;;
29092;SDS011;16167;48.768;14.984;2024-02-14T14:27:58;4.63;;;2.53;;
29092;SDS011;16167;48.768;14.984;2024-02-14T14:30:33;4.75;;;2.20;;
29092;SDS011;16167;48.768;14.984;2024-02-14T14:35:30;5.82;;;2.65;;
29092;SDS011;16167;48.768;14.984;2024-02-14T14:38:00;6.53;;;3.10;;
29092;SDS011;16167;48.768;14.984;2024-02-14T14:40:29;4.78;;;2.40;;
29092;SDS011;16167;48.768;14.984;2024-02-14T14:42:57;5.70;;;2.17;;
29092;SDS011;16167;48.768;14.984;2024-02-14T14:45:26;4.25;;;1.90;;
29092;SDS011;16167;48.768;14.984;2024-02-14T14:47:56;4.85;;;2.88;;
29092;SDS011;16167;48.768;14.984;2024-02-14T14:50:25;5.22;;;2.67;;
29092;SDS011;16167;48.768;14.984;2024-02-14T14:52:53;8.00;;;2.90;;
29092;SDS011;16167;48.768;14.984;2024-02-14T14:55:22;4.35;;;2.80;;
29092;SDS011;16167;48.768;14.984;2024-02-14T14:57:51;5.95;;;2.38;;